Time;durP1;ratioP1;P1;durP2;ratioP2;P2;SDS_P1;SDS_P2;PMS_P1;PMS_P2;Temp;Humidity;BMP_temperature;BMP_pressure;BME280_temperature;BME280_humidity;BME280_pressure;Samples;Min_cycle;Max_cycle;Signal;HPM_P1;HPM_P2
2024/03/03 00:00:04;;;;;;;3.10;1.48;;;;;;;1.97;77.27;98180.72;5018885;28;20096;-45
2024/03/03 00:02:30;;;;;;;3.33;1.83;;;;;;;1.96;77.44;98178.97;5004537;28;20049;-45
2024/03/03 00:04:57;;;;;;;4.20;2.33;;;;;;;1.93;76.40;98169.63;5004160;28;20112;-44
2024/03/03 00:07:24;;;;;;;4.13;2.35;;;;;;;1.93;76.76;98173.88;5004867;28;20064;-48
2024/03/03 00:09:52;;;;;;;3.85;1.73;;;;;;;1.91;76.37;98173.03;5010050;28;20053;-44
2024/03/03 00:12:18;;;;;;;3.78;1.48;;;;;;;1.91;77.17;98175.56;5008979;28;20133;-48
2024/03/03 00:14:45;;;;;;;4.38;2.00;;;;;;;1.90;77.70;98174.72;5003035;28;20076;-43
2024/03/03 00:17:13;;;;;;;7.38;2.88;;;;;;;1.89;76.53;98174.75;5004534;28;20046;-49
2024/03/03 00:19:41;;;;;;;7.80;3.75;;;;;;;1.88;77.31;98180.66;5013349;28;20069;-44
2024/03/03 00:22:08;;;;;;;6.63;2.97;;;;;;;1.85;77.08;98180.66;5000564;28;20061;-45
2024/03/03 00:24:35;;;;;;;9.63;4.57;;;;;;;1.81;77.70;98187.47;5002118;28;20054;-44
2024/03/03 00:27:03;;;;;;;9.75;5.22;;;;;;;1.78;77.11;98193.41;5016334;28;20423;-44
2024/03/03 00:29:29;;;;;;;7.00;3.50;;;;;;;1.77;77.43;98193.41;5007928;28;20049;-47
2024/03/03 00:31:56;;;;;;;5.97;2.70;;;;;;;1.74;77.77;98193.41;5011193;28;20052;-44
2024/03/03 00:34:23;;;;;;;4.75;2.28;;;;;;;1.71;76.79;98193.38;5017235;28;20103;-43
2024/03/03 00:36:49;;;;;;;4.95;2.22;;;;;;;1.69;78.13;98201.03;5003774;28;20053;-45
2024/03/03 00:39:16;;;;;;;5.28;2.35;;;;;;;1.68;77.07;98209.53;5006600;28;20060;-42
2024/03/03 00:41:43;;;;;;;5.50;2.50;;;;;;;1.67;77.57;98202.75;4997641;28;20538;-41
2024/03/03 00:44:09;;;;;;;5.38;2.20;;;;;;;1.65;77.41;98204.44;4995513;28;20055;-44
2024/03/03 00:46:36;;;;;;;5.18;2.40;;;;;;;1.63;77.84;98206.13;5006537;28;20411;-42
2024/03/03 00:49:03;;;;;;;4.45;2.20;;;;;;;1.61;78.17;98208.69;5012509;28;20045;-42
2024/03/03 00:51:31;;;;;;;5.30;2.20;;;;;;;1.57;77.50;98206.09;5008111;28;20124;-46
2024/03/03 00:53:57;;;;;;;3.60;2.20;;;;;;;1.54;77.44;98201.84;5003475;28;20064;-47
2024/03/03 00:56:25;;;;;;;4.13;2.05;;;;;;;1.51;77.83;98202.69;4997618;28;20054;-44
2024/03/03 00:58:52;;;;;;;6.60;2.53;;;;;;;1.50;77.47;98201.00;4991737;28;20144;-49
2024/03/03 01:01:19;;;;;;;5.13;2.30;;;;;;;1.50;77.98;98206.09;4983081;28;20050;-41
2024/03/03 01:03:46;;;;;;;6.07;2.92;;;;;;;1.48;78.33;98202.66;4989712;28;20046;-45
2024/03/03 01:06:12;;;;;;;7.18;2.47;;;;;;;1.46;77.38;98199.28;4996735;28;20141;-43
2024/03/03 01:08:40;;;;;;;4.78;1.85;;;;;;;1.45;77.07;98202.66;4976811;28;20042;-43
2024/03/03 01:11:07;;;;;;;6.82;2.70;;;;;;;1.42;76.98;98202.66;4987496;28;20487;-42
2024/03/03 01:13:34;;;;;;;7.35;1.92;;;;;;;1.38;77.16;98193.25;4992863;28;20526;-45
2024/03/03 01:16:01;;;;;;;5.18;2.38;;;;;;;1.34;76.72;98199.19;4990930;28;20435;-41
2024/03/03 01:18:29;;;;;;;5.75;2.42;;;;;;;1.28;78.05;98194.91;4998564;28;20543;-42
2024/03/03 01:20:56;;;;;;;4.93;2.05;;;;;;;1.23;77.46;98202.56;4992136;28;20060;-44
2024/03/03 01:23:23;;;;;;;7.35;2.65;;;;;;;1.20;77.33;98217.84;4981289;28;20121;-44
2024/03/03 01:25:49;;;;;;;5.53;2.22;;;;;;;1.18;78.07;98227.16;4997510;28;20053;-42
2024/03/03 01:28:16;;;;;;;2.97;1.92;;;;;;;1.15;77.71;98229.72;4989781;28;20607;-45
2024/03/03 01:30:44;;;;;;;6.03;2.22;;;;;;;1.10;78.06;98231.38;4987545;28;20134;-43
2024/03/03 01:33:11;;;;;;;4.95;1.65;;;;;;;1.06;77.14;98230.53;4989732;28;20172;-43
2024/03/03 01:35:38;;;;;;;4.95;2.13;;;;;;;1.05;78.12;98233.06;4992893;28;20424;-45
2024/03/03 01:38:04;;;;;;;6.32;2.10;;;;;;;1.05;78.55;98240.69;4991515;28;20046;-44
2024/03/03 01:40:31;;;;;;;5.00;2.15;;;;;;;1.05;77.07;98246.66;4987640;28;20054;-43
2024/03/03 01:42:58;;;;;;;6.05;2.42;;;;;;;1.04;78.43;98256.84;4985875;28;20136;-43
2024/03/03 01:45:25;;;;;;;5.95;2.60;;;;;;;1.05;78.68;98250.91;4999972;28;20082;-46
2024/03/03 01:47:54;;;;;;;6.65;2.40;;;;;;;1.02;78.25;98255.13;4996098;28;20057;-44
2024/03/03 01:50:24;;;;;;;4.97;2.35;;;;;;;1.01;77.83;98263.63;4987388;28;20042;-43
2024/03/03 01:52:52;;;;;;;4.28;2.05;;;;;;;0.99;77.70;98260.22;4996667;28;20049;-41
2024/03/03 01:55:21;;;;;;;6.45;2.17;;;;;;;0.97;77.35;98269.53;4998039;28;20056;-44
2024/03/03 01:57:52;;;;;;;5.75;2.97;;;;;;;0.96;77.22;98264.44;4983676;28;20047;-44
2024/03/03 02:00:20;;;;;;;5.38;2.97;;;;;;;0.94;77.19;98274.63;4992407;28;20050;-42
2024/03/03 02:02:49;;;;;;;6.68;3.13;;;;;;;0.92;77.97;98278.88;4997628;28;20403;-44
2024/03/03 02:05:16;;;;;;;8.40;2.67;;;;;;;0.91;77.21;98276.31;4990620;28;20046;-44
2024/03/03 02:07:44;;;;;;;4.53;2.03;;;;;;;0.88;78.03;98272.03;5001023;28;20057;-41
2024/03/03 02:10:11;;;;;;;6.63;2.40;;;;;;;0.85;77.28;98269.47;4992449;28;20726;-44
2024/03/03 02:12:40;;;;;;;5.25;2.00;;;;;;;0.80;77.94;98274.50;4994784;28;20041;-43
2024/03/03 02:15:07;;;;;;;3.67;2.17;;;;;;;0.79;77.51;98271.94;4998001;28;20091;-45
2024/03/03 02:17:34;;;;;;;7.63;2.53;;;;;;;0.76;77.14;98268.53;4996125;28;20522;-44
2024/03/03 02:20:01;;;;;;;5.40;2.72;;;;;;;0.73;78.22;98273.63;5002573;28;20119;-46
2024/03/03 02:22:28;;;;;;;5.65;1.98;;;;;;;0.72;78.00;98277.00;4989971;28;20519;-43
2024/03/03 02:24:54;;;;;;;4.40;1.67;;;;;;;0.70;77.54;98283.78;4992202;28;20393;-42
2024/03/03 02:27:22;;;;;;;6.35;2.40;;;;;;;0.68;77.61;98287.16;5002247;28;20154;-42
2024/03/03 02:29:48;;;;;;;7.28;2.83;;;;;;;0.64;77.55;98284.56;4992171;28;20046;-45
2024/03/03 02:32:15;;;;;;;7.00;2.50;;;;;;;0.62;78.24;98296.47;4993550;28;20042;-45
2024/03/03 02:34:41;;;;;;;4.43;2.17;;;;;;;0.60;77.06;98292.16;4998962;28;20119;-43
2024/03/03 02:37:08;;;;;;;6.13;2.50;;;;;;;0.59;77.05;98298.13;4984398;28;20178;-42
2024/03/03 02:39:35;;;;;;;6.40;1.90;;;;;;;0.55;78.26;98292.16;4984567;28;20050;-43
2024/03/03 02:42:02;;;;;;;6.15;3.35;;;;;;;0.53;77.71;98287.88;4986533;28;20058;-46
2024/03/03 02:44:28;;;;;;;5.97;3.03;;;;;;;0.50;77.08;98293.78;4987591;28;20503;-43
2024/03/03 02:46:55;;;;;;;6.38;2.60;;;;;;;0.49;78.13;98290.41;4983235;28;20499;-43
2024/03/03 02:49:22;;;;;;;7.63;3.83;;;;;;;0.47;77.45;98288.69;4982102;28;20427;-44
2024/03/03 02:51:48;;;;;;;6.82;3.00;;;;;;;0.47;77.11;98286.97;4996520;28;20112;-46
2024/03/03 02:54:15;;;;;;;6.80;3.05;;;;;;;0.47;77.31;98292.06;4989861;28;20550;-44
2024/03/03 02:56:43;;;;;;;9.50;3.80;;;;;;;0.47;77.74;98292.06;4993192;28;20169;-42
2024/03/03 02:59:10;;;;;;;7.90;3.70;;;;;;;0.49;77.82;98298.03;4995181;28;20116;-45
2024/03/03 03:01:37;;;;;;;9.18;3.83;;;;;;;0.50;77.67;98306.50;4997819;28;20064;-41
2024/03/03 03:04:03;;;;;;;12.20;4.47;;;;;;;0.51;78.23;98311.63;4993561;28;20381;-44
2024/03/03 03:06:30;;;;;;;8.35;3.40;;;;;;;0.51;77.50;98314.19;4995744;28;20513;-45
2024/03/03 03:08:57;;;;;;;8.70;3.22;;;;;;;0.51;77.38;98309.09;5000122;28;20049;-48
2024/03/03 03:11:24;;;;;;;9.82;3.97;;;;;;;0.53;77.85;98321.00;4999737;28;20042;-47
2024/03/03 03:13:52;;;;;;;10.35;4.07;;;;;;;0.53;77.53;98318.47;4998403;28;20136;-46
2024/03/03 03:16:21;;;;;;;8.18;3.88;;;;;;;0.52;78.21;98327.78;4995558;28;20724;-45
2024/03/03 03:18:48;;;;;;;11.35;4.80;;;;;;;0.54;78.75;98330.34;4994044;28;20766;-47
2024/03/03 03:21:15;;;;;;;8.60;3.55;;;;;;;0.53;78.22;98336.28;4989760;28;20157;-46
2024/03/03 03:23:41;;;;;;;9.90;3.90;;;;;;;0.53;77.54;98343.94;4994771;28;20062;-44
2024/03/03 03:26:08;;;;;;;9.25;3.65;;;;;;;0.50;77.89;98340.50;4991657;28;20496;-41
2024/03/03 03:28:35;;;;;;;7.80;3.67;;;;;;;0.49;77.55;98350.66;5001073;28;20424;-48
2024/03/03 03:31:02;;;;;;;8.77;3.85;;;;;;;0.46;78.02;98340.44;4994473;28;20057;-46
2024/03/03 03:33:29;;;;;;;9.43;4.18;;;;;;;0.45;78.53;98339.59;4990565;28;20066;-43
2024/03/03 03:35:55;;;;;;;10.55;4.07;;;;;;;0.43;78.36;98346.38;4994773;28;20418;-45
2024/03/03 03:38:22;;;;;;;9.35;3.72;;;;;;;0.41;77.77;98335.31;4990227;28;20112;-42
2024/03/03 03:40:48;;;;;;;7.65;4.05;;;;;;;0.40;77.92;98336.13;4990365;28;20054;-43
2024/03/03 03:43:15;;;;;;;6.50;3.10;;;;;;;0.39;77.40;98339.53;4990937;28;20136;-42
2024/03/03 03:45:42;;;;;;;8.55;3.88;;;;;;;0.40;78.31;98335.31;4999223;28;20058;-41
2024/03/03 03:48:09;;;;;;;10.63;3.72;;;;;;;0.38;78.54;98337.81;4990700;28;20063;-44
2024/03/03 03:50:36;;;;;;;10.55;4.22;;;;;;;0.38;78.44;98348.84;4996481;28;20495;-47
2024/03/03 03:53:03;;;;;;;8.70;4.25;;;;;;;0.36;78.07;98350.53;4985634;28;20737;-46
2024/03/03 03:55:30;;;;;;;6.35;3.08;;;;;;;0.35;78.64;98353.06;4993148;28;20049;-42
2024/03/03 03:57:58;;;;;;;10.35;3.13;;;;;;;0.33;77.69;98352.19;4983777;28;20061;-44
2024/03/03 04:00:25;;;;;;;9.45;4.07;;;;;;;0.30;78.51;98349.63;4988298;28;20058;-45
2024/03/03 04:02:51;;;;;;;6.88;3.58;;;;;;;0.28;78.63;98341.97;4984027;28;20058;-46
2024/03/03 04:05:18;;;;;;;10.27;3.40;;;;;;;0.27;78.48;98345.31;4987877;28;20045;-43
2024/03/03 04:07:45;;;;;;;8.60;3.80;;;;;;;0.27;78.33;98349.59;4992475;28;20069;-43
2024/03/03 04:10:15;;;;;;;10.43;4.05;;;;;;;0.27;78.00;98349.59;4990260;28;20050;-45
2024/03/03 04:12:42;;;;;;;9.52;3.53;;;;;;;0.27;78.16;98358.06;4987868;28;20415;-46
2024/03/03 04:15:10;;;;;;;9.32;3.78;;;;;;;0.27;77.74;98357.22;4988732;28;20471;-44
2024/03/03 04:17:36;;;;;;;9.10;3.40;;;;;;;0.28;78.45;98366.56;4986781;28;20407;-45
2024/03/03 04:20:05;;;;;;;11.50;3.90;;;;;;;0.29;78.29;98370.81;4987581;28;20046;-50
2024/03/03 04:22:33;;;;;;;8.93;4.13;;;;;;;0.29;78.55;98378.47;4986471;28;20050;-45
2024/03/03 04:25:00;;;;;;;10.40;4.03;;;;;;;0.28;78.61;98374.22;4992935;28;20503;-47
2024/03/03 04:27:26;;;;;;;10.15;4.35;;;;;;;0.29;78.87;98373.38;4991067;28;20050;-45
2024/03/03 04:29:53;;;;;;;9.95;4.28;;;;;;;0.27;77.90;98370.78;4997193;28;20061;-42
2024/03/03 04:32:20;;;;;;;13.65;3.88;;;;;;;0.25;78.76;98373.34;4989172;28;20393;-46
2024/03/03 04:34:46;;;;;;;10.30;4.18;;;;;;;0.23;78.00;98369.91;4989204;28;20049;-43
2024/03/03 04:37:13;;;;;;;8.13;3.92;;;;;;;0.20;78.16;98374.97;4990995;28;20054;-44
2024/03/03 04:39:40;;;;;;;19.75;3.67;;;;;;;0.20;78.37;98366.50;4989800;28;20105;-45
2024/03/03 04:42:08;;;;;;;10.32;3.97;;;;;;;0.16;78.14;98368.13;4984683;28;20412;-43
2024/03/03 04:44:38;;;;;;;9.63;4.47;;;;;;;0.13;78.56;98378.28;4989040;28;20049;-47
2024/03/03 04:47:09;;;;;;;9.68;3.78;;;;;;;0.10;78.32;98380.81;4986951;28;20054;-44
2024/03/03 04:49:39;;;;;;;7.90;3.47;;;;;;;0.07;78.76;98379.03;4988052;28;20503;-42
2024/03/03 04:52:06;;;;;;;9.98;4.57;;;;;;;0.05;78.58;98385.81;4991263;28;20084;-43
2024/03/03 04:54:34;;;;;;;8.55;3.90;;;;;;;0.04;78.23;98383.25;4993773;28;20046;-44
2024/03/03 04:57:01;;;;;;;6.25;3.50;;;;;;;0.02;78.87;98369.63;4993893;28;20073;-42
2024/03/03 04:59:27;;;;;;;10.82;4.55;;;;;;;-0.01;78.13;98384.06;4997650;28;20053;-45
2024/03/03 05:01:54;;;;;;;8.40;4.28;;;;;;;0.00;78.96;98390.00;4991379;28;20133;-43
2024/03/03 05:04:21;;;;;;;9.60;4.30;;;;;;;0.01;78.06;98393.41;4989261;28;20047;-43
2024/03/03 05:06:48;;;;;;;11.55;3.95;;;;;;;-0.01;78.44;98394.25;4993454;28;20179;-44
2024/03/03 05:09:15;;;;;;;9.95;3.58;;;;;;;0.01;78.84;98393.41;4988936;28;20565;-44
2024/03/03 05:11:42;;;;;;;9.30;3.10;;;;;;;0.01;78.99;98404.44;4990067;28;20113;-45
2024/03/03 05:14:09;;;;;;;8.77;3.97;;;;;;;0.02;78.96;98411.25;4985849;28;20048;-47
2024/03/03 05:16:35;;;;;;;8.25;3.90;;;;;;;0.05;78.69;98415.50;4980141;28;20058;-46
2024/03/03 05:19:02;;;;;;;10.05;4.28;;;;;;;0.07;78.67;98418.94;4992323;28;20050;-45
2024/03/03 05:21:30;;;;;;;8.48;3.63;;;;;;;0.07;79.09;98418.94;4988977;28;20046;-44
2024/03/03 05:23:57;;;;;;;11.52;3.47;;;;;;;0.06;78.88;98427.41;4991780;28;20139;-45
2024/03/03 05:26:24;;;;;;;7.72;3.75;;;;;;;0.04;78.29;98434.19;4986654;28;20085;-44
2024/03/03 05:28:51;;;;;;;7.20;3.22;;;;;;;0.01;78.58;98434.13;4993755;28;20054;-42
2024/03/03 05:31:19;;;;;;;9.85;3.90;;;;;;;-0.02;78.41;98440.91;5000188;28;20046;-45
2024/03/03 05:33:45;;;;;;;11.07;4.07;;;;;;;-0.04;78.28;98446.78;4994942;28;20056;-45
2024/03/03 05:36:13;;;;;;;10.15;3.83;;;;;;;-0.07;78.78;98452.69;5000931;28;20088;-47
2024/03/03 05:38:40;;;;;;;9.07;3.70;;;;;;;-0.09;78.53;98448.41;4992230;28;20769;-46
2024/03/03 05:41:07;;;;;;;10.35;4.25;;;;;;;-0.10;78.83;98452.63;4994231;28;20050;-45
2024/03/03 05:43:33;;;;;;;8.02;4.20;;;;;;;-0.12;79.03;98451.78;5003049;28;20461;-44
2024/03/03 05:46:00;;;;;;;9.75;4.15;;;;;;;-0.12;79.01;98459.41;4995817;28;20067;-45
2024/03/03 05:48:27;;;;;;;8.68;3.53;;;;;;;-0.12;78.29;98464.50;4991375;28;20145;-44
2024/03/03 05:50:54;;;;;;;9.02;2.97;;;;;;;-0.12;78.94;98464.50;4992273;28;20051;-48
2024/03/03 05:53:21;;;;;;;11.90;4.40;;;;;;;-0.13;79.14;98465.34;4992443;28;20046;-45
2024/03/03 05:55:48;;;;;;;9.88;3.85;;;;;;;-0.10;78.77;98480.63;4984861;28;20046;-45
2024/03/03 05:58:15;;;;;;;10.90;4.45;;;;;;;-0.09;78.62;98484.06;4985863;28;20050;-41
2024/03/03 06:00:41;;;;;;;11.18;3.88;;;;;;;-0.08;78.75;98485.75;4993556;28;20058;-47
2024/03/03 06:03:08;;;;;;;10.35;4.10;;;;;;;-0.09;79.32;98484.06;4996029;28;20105;-43
2024/03/03 06:05:36;;;;;;;9.43;3.65;;;;;;;-0.10;78.54;98482.34;4990332;28;20042;-48
2024/03/03 06:08:03;;;;;;;9.10;3.33;;;;;;;-0.13;78.41;98498.44;4986301;28;20090;-42
2024/03/03 06:10:30;;;;;;;9.13;3.22;;;;;;;-0.15;78.54;98500.94;4990902;28;20058;-43
2024/03/03 06:12:56;;;;;;;9.27;3.70;;;;;;;-0.15;78.71;98505.16;4987709;28;20617;-42
2024/03/03 06:15:23;;;;;;;10.93;4.80;;;;;;;-0.16;79.01;98506.00;4995543;28;20050;-46
2024/03/03 06:17:50;;;;;;;11.55;4.90;;;;;;;-0.17;79.31;98517.03;4986348;28;20050;-42
2024/03/03 06:20:17;;;;;;;8.95;3.40;;;;;;;-0.17;78.86;98533.13;4992748;28;20185;-41
2024/03/03 06:22:43;;;;;;;8.90;3.78;;;;;;;-0.14;79.18;98537.41;4991182;28;20046;-47
2024/03/03 06:25:10;;;;;;;6.03;3.08;;;;;;;-0.17;79.11;98528.06;4989673;28;20491;-45
2024/03/03 06:27:39;;;;;;;6.97;3.35;;;;;;;-0.17;78.57;98524.66;4985117;28;20538;-44
2024/03/03 06:30:08;;;;;;;7.93;2.90;;;;;;;-0.19;78.90;98526.31;4997648;28;20491;-46
2024/03/03 06:32:35;;;;;;;8.10;3.90;;;;;;;-0.21;79.07;98535.63;4998380;28;20046;-48
2024/03/03 06:35:02;;;;;;;13.20;4.25;;;;;;;-0.22;78.54;98539.84;4987194;28;20481;-41
2024/03/03 06:37:31;;;;;;;8.65;3.90;;;;;;;-0.24;79.03;98541.50;4983071;28;20427;-45
2024/03/03 06:39:58;;;;;;;10.48;4.07;;;;;;;-0.22;78.73;98559.34;4991393;28;20054;-45
2024/03/03 06:42:24;;;;;;;9.50;4.07;;;;;;;-0.22;78.66;98559.34;4990233;28;20050;-46
2024/03/03 06:44:52;;;;;;;8.75;3.97;;;;;;;-0.20;79.27;98552.59;4997379;28;20046;-43
2024/03/03 06:47:19;;;;;;;12.93;4.75;;;;;;;-0.18;79.24;98556.00;4992387;28;20057;-43
2024/03/03 06:49:46;;;;;;;12.25;4.55;;;;;;;-0.12;78.93;98561.22;4987979;28;20065;-45
2024/03/03 06:52:12;;;;;;;11.60;3.90;;;;;;;-0.08;79.31;98568.06;4986050;28;20057;-44
2024/03/03 06:54:39;;;;;;;9.13;3.97;;;;;;;-0.04;79.40;98569.84;4978775;28;20157;-44
2024/03/03 06:57:07;;;;;;;9.63;4.28;;;;;;;-0.01;78.91;98564.78;4984699;28;20050;-46
2024/03/03 06:59:34;;;;;;;10.25;4.88;;;;;;;0.04;79.77;98584.38;4987590;28;20049;-44
2024/03/03 07:02:00;;;;;;;8.40;4.07;;;;;;;0.06;78.96;98585.25;4984700;28;20042;-42
2024/03/03 07:04:27;;;;;;;8.82;4.05;;;;;;;0.10;79.38;98581.94;4990661;28;20045;-48
2024/03/03 07:06:55;;;;;;;11.50;4.57;;;;;;;0.13;79.11;98581.97;4991278;28;20137;-44
2024/03/03 07:09:23;;;;;;;7.28;3.60;;;;;;;0.17;79.67;98591.38;4997259;28;20060;-41
2024/03/03 07:11:51;;;;;;;8.18;3.38;;;;;;;0.18;79.96;98593.09;4992672;28;20081;-48
2024/03/03 07:14:19;;;;;;;8.30;3.88;;;;;;;0.20;78.50;98604.16;5001360;28;20057;-44
2024/03/03 07:16:46;;;;;;;8.75;3.58;;;;;;;0.23;79.59;98601.66;4996058;28;20060;-44
2024/03/03 07:19:13;;;;;;;9.93;3.78;;;;;;;0.27;78.99;98609.34;4986664;28;20042;-42
2024/03/03 07:21:40;;;;;;;8.70;3.30;;;;;;;0.31;78.68;98608.56;4984386;28;20058;-48
2024/03/03 07:24:07;;;;;;;13.52;4.35;;;;;;;0.35;79.11;98615.41;4989599;28;20551;-46
2024/03/03 07:26:34;;;;;;;7.72;4.18;;;;;;;0.37;79.03;98619.69;4998004;28;20042;-44
2024/03/03 07:29:02;;;;;;;12.02;4.53;;;;;;;0.41;79.46;98618.06;5000087;28;20049;-44
2024/03/03 07:31:30;;;;;;;11.38;4.47;;;;;;;0.45;79.11;98618.97;4989757;28;20131;-45
2024/03/03 07:33:56;;;;;;;10.98;3.75;;;;;;;0.49;79.58;98621.59;4992034;28;20469;-45
2024/03/03 07:36:25;;;;;;;11.55;4.68;;;;;;;0.55;79.61;98625.91;4992412;28;20506;-42
2024/03/03 07:38:52;;;;;;;11.02;4.50;;;;;;;0.60;78.92;98626.84;4990723;28;20053;-45
2024/03/03 07:41:19;;;;;;;11.88;5.47;;;;;;;0.64;79.07;98632.81;4998323;28;20061;-47
2024/03/03 07:43:46;;;;;;;11.23;4.78;;;;;;;0.70;78.49;98626.97;4988012;28;20061;-49
2024/03/03 07:46:13;;;;;;;11.20;4.65;;;;;;;0.76;78.76;98629.59;4988409;28;20050;-46
2024/03/03 07:48:40;;;;;;;9.15;3.75;;;;;;;0.84;79.65;98637.38;4986487;28;20057;-46
2024/03/03 07:51:07;;;;;;;10.80;4.28;;;;;;;0.92;78.28;98640.88;4982110;28;20082;-47
2024/03/03 07:53:33;;;;;;;13.38;5.07;;;;;;;1.01;79.04;98635.88;4976568;28;20455;-49
2024/03/03 07:56:00;;;;;;;10.32;5.00;;;;;;;1.22;79.61;98644.66;4987394;28;20050;-51
2024/03/03 07:58:27;;;;;;;15.25;5.45;;;;;;;1.44;78.49;98649.16;4991452;28;20141;-42
2024/03/03 08:00:54;;;;;;;18.30;6.05;;;;;;;1.64;79.40;98652.81;4989154;28;20384;-44
2024/03/03 08:03:20;;;;;;;18.60;5.35;;;;;;;1.82;78.80;98663.19;4982479;28;20125;-45
2024/03/03 08:05:47;;;;;;;11.88;5.18;;;;;;;2.09;78.53;98669.41;4984381;28;20058;-46
2024/03/03 08:08:14;;;;;;;16.42;5.90;;;;;;;2.26;77.67;98667.84;5005055;28;20050;-50
2024/03/03 08:10:41;;;;;;;17.83;5.80;;;;;;;2.34;78.13;98665.38;4989098;28;20053;-44
2024/03/03 08:13:10;;;;;;;16.80;6.22;;;;;;;2.53;78.37;98671.47;4988063;28;20496;-47
2024/03/03 08:15:36;;;;;;;11.43;5.20;;;;;;;2.94;77.61;98674.34;4980749;28;20578;-44
2024/03/03 08:18:03;;;;;;;13.40;6.38;;;;;;;3.38;77.77;98688.19;4989079;28;20061;-45
2024/03/03 08:20:30;;;;;;;11.90;4.75;;;;;;;3.70;77.51;98691.72;4988774;28;20406;-49
2024/03/03 08:22:57;;;;;;;13.32;5.15;;;;;;;3.95;77.12;98694.38;4987896;28;20057;-44
2024/03/03 08:25:24;;;;;;;14.52;5.65;;;;;;;4.35;76.47;98694.44;4998567;28;20054;-50
2024/03/03 08:27:52;;;;;;;16.48;6.63;;;;;;;4.93;76.57;98689.25;4987973;28;20074;-45
2024/03/03 08:30:19;;;;;;;17.23;6.72;;;;;;;5.77;76.52;98690.69;4994793;28;20054;-44
2024/03/03 08:32:46;;;;;;;24.08;8.90;;;;;;;6.76;77.17;98688.34;4985344;28;20138;-48
2024/03/03 08:35:14;;;;;;;23.05;8.70;;;;;;;7.81;76.04;98700.94;4981484;28;20101;-53
2024/03/03 08:37:43;;;;;;;18.75;7.95;;;;;;;8.47;74.50;98706.84;4988906;28;20498;-46
2024/03/03 08:40:10;;;;;;;33.33;13.77;;;;;;;9.14;73.31;98699.75;4987106;28;20104;-47
2024/03/03 08:42:37;;;;;;;16.88;7.70;;;;;;;9.72;72.03;98699.47;4988414;28;20554;-44
2024/03/03 08:45:06;;;;;;;14.65;6.20;;;;;;;10.18;70.46;98701.94;4997582;28;20047;-46
2024/03/03 08:47:32;;;;;;;13.77;6.63;;;;;;;10.47;70.87;98707.34;4986193;28;20390;-47
2024/03/03 08:49:59;;;;;;;11.15;5.78;;;;;;;10.61;69.98;98707.00;4988286;28;20058;-46
2024/03/03 08:52:26;;;;;;;14.07;4.68;;;;;;;10.76;69.62;98708.38;4987130;28;20053;-46
2024/03/03 08:54:54;;;;;;;9.57;4.82;;;;;;;11.14;70.57;98713.44;4985696;28;20117;-46
2024/03/03 08:57:23;;;;;;;12.45;5.65;;;;;;;11.91;70.51;98719.97;4987646;28;20057;-47
2024/03/03 08:59:51;;;;;;;9.85;5.30;;;;;;;12.87;69.26;98725.69;4985554;28;20076;-48
2024/03/03 09:02:18;;;;;;;10.48;4.15;;;;;;;13.48;66.88;98717.53;4984784;28;20451;-45
2024/03/03 09:04:45;;;;;;;9.63;4.32;;;;;;;13.78;65.40;98713.84;4987030;28;20146;-50
2024/03/03 09:07:12;;;;;;;8.65;4.70;;;;;;;13.97;64.92;98714.00;4995635;28;20046;-46
2024/03/03 09:09:39;;;;;;;11.57;5.38;;;;;;;14.11;64.79;98716.09;4997826;28;20125;-45
2024/03/03 09:12:10;;;;;;;13.27;6.03;;;;;;;14.18;63.95;98721.06;4992426;28;20074;-46
2024/03/03 09:14:37;;;;;;;11.13;5.22;;;;;;;14.35;64.52;98723.84;4995564;28;20046;-46
2024/03/03 09:17:04;;;;;;;11.73;4.88;;;;;;;14.49;63.05;98719.84;5001049;28;20054;-46
2024/03/03 09:19:30;;;;;;;8.82;4.68;;;;;;;14.40;63.10;98716.66;5001542;28;20050;-50
2024/03/03 09:21:57;;;;;;;8.60;4.95;;;;;;;14.22;62.27;98733.06;4991576;28;20054;-46
2024/03/03 09:24:26;;;;;;;6.95;4.30;;;;;;;14.17;63.29;98727.16;5001287;28;20077;-46
2024/03/03 09:26:53;;;;;;;8.45;4.22;;;;;;;14.40;62.98;98724.50;4998870;28;20053;-43
2024/03/03 09:29:19;;;;;;;9.90;5.03;;;;;;;14.79;62.83;98727.31;4985713;28;20581;-49
2024/03/03 09:31:52;;;;;;;7.60;3.90;;;;;;;15.20;62.40;98730.88;4990461;28;20105;-44
2024/03/03 09:34:19;;;;;;;8.25;4.30;;;;;;;15.52;61.40;98742.50;4990458;28;20050;-50
2024/03/03 09:36:46;;;;;;;7.78;3.88;;;;;;;15.77;59.80;98745.78;4992953;28;20054;-47
2024/03/03 09:39:13;;;;;;;10.15;5.38;;;;;;;15.91;59.95;98747.78;4992630;28;20422;-45
2024/03/03 09:41:41;;;;;;;9.43;5.70;;;;;;;15.67;58.29;98742.72;4988220;28;20054;-48
2024/03/03 09:44:11;;;;;;;33.13;15.63;;;;;;;15.27;58.77;98753.19;4995189;28;20047;-49
2024/03/03 09:46:40;;;;;;;28.55;13.10;;;;;;;15.33;59.89;98752.06;4984553;28;20050;-46
2024/03/03 09:49:14;;;;;;;10.95;5.55;;;;;;;15.51;58.93;98760.84;4997262;28;20041;-46
2024/03/03 09:51:44;;;;;;;16.85;9.50;;;;;;;15.82;59.38;98762.09;4996389;28;20504;-48
2024/03/03 09:54:14;;;;;;;10.98;5.80;;;;;;;16.30;58.97;98764.28;4997993;28;20073;-48
2024/03/03 09:56:44;;;;;;;10.40;5.68;;;;;;;16.69;58.52;98765.09;4991790;28;20075;-45
2024/03/03 09:59:14;;;;;;;15.20;7.85;;;;;;;16.89;57.40;98761.47;4994799;28;20051;-48
2024/03/03 10:01:50;;;;;;;17.98;8.63;;;;;;;16.89;56.47;98766.69;4986725;28;20057;-49
2024/03/03 10:04:18;;;;;;;13.85;5.90;;;;;;;16.86;56.52;98772.09;4989014;28;20101;-49
2024/03/03 10:06:50;;;;;;;6.35;4.53;;;;;;;17.16;56.49;98771.50;4988751;28;20137;-45
2024/03/03 10:09:18;;;;;;;8.52;5.40;;;;;;;17.59;55.40;98775.44;4989059;28;20051;-47
2024/03/03 10:11:47;;;;;;;5.82;3.38;;;;;;;18.02;54.86;98774.09;4994837;28;21173;-48
2024/03/03 10:14:15;;;;;;;4.63;2.63;;;;;;;18.19;54.29;98781.91;4994529;28;20037;-47
2024/03/03 10:16:41;;;;;;;5.75;2.38;;;;;;;18.18;53.48;98777.63;4992304;28;20424;-47
2024/03/03 10:19:08;;;;;;;5.97;2.95;;;;;;;17.98;53.01;98787.38;4991308;28;20412;-46
2024/03/03 10:21:37;;;;;;;7.22;2.38;;;;;;;18.07;52.58;98779.94;4989585;28;20058;-46
2024/03/03 10:24:24;;;;;;;4.50;2.47;;;;;;;18.41;52.69;98787.75;4989544;28;20853;-49
2024/03/03 10:26:53;;;;;;;16.02;9.30;;;;;;;18.63;52.17;98782.13;4984154;28;20058;-50
2024/03/03 10:29:22;;;;;;;9.23;4.68;;;;;;;18.84;51.81;98794.94;4988588;28;20049;-45
2024/03/03 10:31:49;;;;;;;5.47;3.17;;;;;;;19.21;52.36;98792.84;4990044;28;20045;-44
2024/03/03 10:34:20;;;;;;;7.05;3.45;;;;;;;19.56;51.14;98791.69;4986717;28;20551;-46
2024/03/03 10:36:49;;;;;;;5.18;3.15;;;;;;;19.75;50.73;98796.66;4989952;28;20056;-48
2024/03/03 10:39:16;;;;;;;3.38;2.13;;;;;;;19.94;50.34;98794.69;5001971;28;20135;-45
2024/03/03 10:41:42;;;;;;;4.57;2.60;;;;;;;20.03;49.20;98800.25;4991523;28;20062;-47
2024/03/03 10:44:09;;;;;;;6.75;3.55;;;;;;;20.05;48.80;98800.16;4991541;28;20554;-45
2024/03/03 10:46:37;;;;;;;4.03;2.90;;;;;;;19.47;48.88;98800.97;4987774;28;20053;-46
2024/03/03 10:49:04;;;;;;;10.13;4.90;;;;;;;19.04;49.41;98800.84;4987175;28;20503;-42
2024/03/03 10:51:31;;;;;;;7.28;3.83;;;;;;;18.75;49.57;98817.31;4985911;28;20549;-46
2024/03/03 10:54:01;;;;;;;10.45;5.82;;;;;;;18.66;49.27;98817.81;5001713;28;20057;-46
2024/03/03 10:56:28;;;;;;;4.53;2.60;;;;;;;18.34;49.44;98822.16;4986913;28;20050;-44
2024/03/03 10:58:57;;;;;;;4.38;2.53;;;;;;;18.17;49.05;98827.47;4985876;28;20058;-45
2024/03/03 11:01:24;;;;;;;5.55;2.75;;;;;;;17.92;49.33;98813.03;4986651;28;20047;-45
2024/03/03 11:03:54;;;;;;;4.50;2.60;;;;;;;17.96;49.99;98820.66;4986520;28;20474;-44
2024/03/03 11:06:22;;;;;;;;;;;;;;;18.10;49.10;98827.81;4988464;28;20042;-46
2024/03/03 11:08:49;;;;;;;5.05;2.33;;;;;;;18.08;49.63;98823.53;4987739;28;19929;-45
2024/03/03 11:11:23;;;;;;;3.53;1.92;;;;;;;17.68;48.88;98832.59;4980505;28;20077;-43
2024/03/03 11:16:30;;;;;;;38.38;16.27;;;;;;;16.54;46.39;98845.06;5062486;27;20418;-49
2024/03/03 11:19:04;;;;;;;11.00;8.07;;;;;;;16.30;49.31;98843.53;5023175;28;20054;-47
2024/03/03 11:21:36;;;;;;;5.22;3.95;;;;;;;16.50;49.65;98848.72;5026605;28;20053;-47
2024/03/03 11:24:06;;;;;;;8.38;5.30;;;;;;;16.51;49.00;98855.69;5027633;28;20045;-50
2024/03/03 11:26:44;;;;;;;14.02;8.18;;;;;;;16.33;49.46;98863.44;5021671;28;20521;-43
2024/03/03 11:29:11;;;;;;;84.75;31.90;;;;;;;16.10;50.21;98861.84;5020730;28;20041;-47
2024/03/03 11:31:40;;;;;;;5.97;4.22;;;;;;;16.04;50.04;98858.59;5019450;28;20128;-47
2024/03/03 11:34:08;;;;;;;6.82;4.40;;;;;;;15.89;50.49;98854.88;5020103;28;20494;-47
2024/03/03 11:36:36;;;;;;;5.40;4.90;;;;;;;15.73;50.67;98851.22;5024209;28;20147;-46
2024/03/03 11:39:13;;;;;;;4.85;2.80;;;;;;;15.56;50.03;98858.03;5026889;28;20411;-48